Time;durP1;ratioP1;P1;durP2;ratioP2;P2;SDS_P1;SDS_P2;PMS_P1;PMS_P2;Temp;Humidity;BMP_temperature;BMP_pressure;BME280_temperature;BME280_humidity;BME280_pressure;Samples;Min_cycle;Max_cycle;Signal;HPM_P1;HPM_P2
2021/12/15 00:00:48;;;;;;;;;;;;;;;;;;6293835;28;20066;-80
2021/12/15 00:03:50;;;;;;;48.95;21.23;;;;;;;;;;6302510;28;19947;-80
2021/12/15 00:06:52;;;;;;;42.45;17.95;;;;;;;;;;6294138;28;20051;-81
2021/12/15 00:09:54;;;;;;;38.47;16.38;;;;;;;;;;6293876;28;20123;-80
2021/12/15 00:12:57;;;;;;;38.92;15.63;;;;;;;;;;6274078;28;20037;-81
2021/12/15 00:15:58;;;;;;;34.13;15.32;;;;;;;;;;6319620;28;20047;-81
2021/12/15 00:19:01;;;;;;;34.65;14.73;;;;;;;;;;6321887;28;20052;-82
2021/12/15 00:22:04;;;;;;;35.05;14.98;;;;;;;;;;6302398;28;20439;-83
2021/12/15 00:25:09;;;;;;;31.90;14.80;;;;;;;;;;6312404;28;20059;-83
2021/12/15 00:28:11;;;;;;;36.95;15.73;;;;;;;;;;6319929;28;20050;-82
2021/12/15 00:31:13;;;;;;;36.35;14.98;;;;;;;;;;6287890;28;20043;-81
2021/12/15 00:34:16;;;;;;;41.30;17.23;;;;;;;;;;6295839;28;20115;-82
2021/12/15 00:37:19;;;;;;;43.08;17.60;;;;;;;;;;6297024;28;20464;-82
2021/12/15 00:40:23;;;;;;;39.50;17.40;;;;;;;;;;6284227;28;20143;-82
2021/12/15 00:43:26;;;;;;;38.55;16.10;;;;;;;;;;6319539;28;20059;-82
2021/12/15 00:46:28;;;;;;;37.53;17.23;;;;;;;;;;6277190;28;20082;-82
2021/12/15 00:49:30;;;;;;;32.03;14.70;;;;;;;;;;6302492;28;20046;-82
2021/12/15 00:52:33;;;;;;;32.47;15.40;;;;;;;;;;6284832;28;20068;-81
2021/12/15 00:55:36;;;;;;;32.03;14.25;;;;;;;;;;6301964;28;20583;-81
2021/12/15 00:58:39;;;;;;;33.17;15.20;;;;;;;;;;6317443;28;20175;-81
2021/12/15 01:01:41;;;;;;;29.98;14.35;;;;;;;;;;6294954;28;20040;-79
2021/12/15 01:04:43;;;;;;;36.05;16.63;;;;;;;;;;6293844;28;20752;-83
2021/12/15 01:07:46;;;;;;;41.15;16.60;;;;;;;;;;6285912;28;20040;-82
2021/12/15 01:20:59;;;;;;;37.83;16.77;;;;;;;;;;6246645;28;20121;-81
2021/12/15 01:24:00;;;;;;;;;;;;;;;;;;6288076;28;20047;-82
2021/12/15 01:27:02;;;;;;;39.53;16.88;;;;;;;;;;6277398;28;19926;-81
2021/12/15 01:30:07;;;;;;;42.72;16.40;;;;;;;;;;6275982;28;20060;-81
2021/12/15 01:33:11;;;;;;;41.92;17.95;;;;;;;;;;6301171;28;20447;-82
2021/12/15 01:36:13;;;;;;;37.80;15.80;;;;;;;;;;6301707;28;20047;-81
2021/12/15 01:39:15;;;;;;;35.58;15.18;;;;;;;;;;6300570;28;20038;-81
2021/12/15 01:42:16;;;;;;;33.80;14.45;;;;;;;;;;6277309;28;20041;-82
2021/12/15 01:48:39;;;;;;;37.22;15.30;;;;;;;;;;6276756;28;20519;-82
2021/12/15 01:51:42;;;;;;;34.35;15.70;;;;;;;;;;6278506;28;20036;-82
2021/12/15 01:54:48;;;;;;;38.47;16.37;;;;;;;;;;6306566;28;20136;-81
2021/12/15 01:57:50;;;;;;;33.42;14.45;;;;;;;;;;6300105;28;20099;-83
2021/12/15 02:00:56;;;;;;;36.55;15.95;;;;;;;;;;6279930;28;20114;-81
2021/12/15 02:03:59;;;;;;;35.97;14.98;;;;;;;;;;6276124;28;20045;-83
2021/12/15 02:07:15;;;;;;;33.63;15.30;;;;;;;;;;6280562;28;20455;-83
2021/12/15 02:10:21;;;;;;;34.97;15.02;;;;;;;;;;6298609;28;20047;-83
2021/12/15 02:13:31;;;;;;;40.40;15.25;;;;;;;;;;6299687;28;20069;-82
2021/12/15 02:16:33;;;;;;;40.67;16.73;;;;;;;;;;6283937;28;20221;-81
2021/12/15 02:19:35;;;;;;;38.70;15.80;;;;;;;;;;6299910;28;20044;-79
2021/12/15 02:22:36;;;;;;;34.92;15.13;;;;;;;;;;6280230;28;20043;-81
2021/12/15 02:25:39;;;;;;;36.75;16.35;;;;;;;;;;6310538;28;20118;-81
2021/12/15 02:28:46;;;;;;;40.75;15.05;;;;;;;;;;6299253;28;20046;-81
2021/12/15 02:37:58;;;;;;;37.38;15.00;;;;;;;;;;6285541;28;20043;-80
2021/12/15 02:41:07;;;;;;;34.28;15.60;;;;;;;;;;6282363;28;20493;-80
2021/12/15 02:44:15;;;;;;;32.38;14.65;;;;;;;;;;6281284;28;20070;-81
2021/12/15 02:47:21;;;;;;;30.80;14.90;;;;;;;;;;6305124;28;20526;-82
2021/12/15 02:50:28;;;;;;;39.53;15.32;;;;;;;;;;6297283;28;20091;-82
2021/12/15 02:53:29;;;;;;;39.92;14.50;;;;;;;;;;6292220;28;20056;-81
2021/12/15 02:56:31;;;;;;;34.25;15.07;;;;;;;;;;6316106;28;20046;-80
2021/12/15 02:59:46;;;;;;;35.67;14.45;;;;;;;;;;6314367;28;20040;-82
2021/12/15 03:06:29;;;;;;;36.08;15.25;;;;;;;;;;6308630;28;20044;-81
2021/12/15 03:15:19;;;;;;;36.65;13.95;;;;;;;;;;6292832;28;20062;-83
2021/12/15 03:16:18;;;;;;;42.42;16.13;;;;;;;;;;6299154;28;20051;-79
2021/12/15 03:19:20;;;;;;;39.33;15.07;;;;;;;;;;6292543;28;20040;-79
2021/12/15 03:22:22;;;;;;;45.97;16.58;;;;;;;;;;6294772;28;20040;-80
2021/12/15 03:25:25;;;;;;;40.45;17.50;;;;;;;;;;6282628;28;20041;-82
2021/12/15 03:35:21;;;;;;;37.85;16.05;;;;;;;;;;6299442;28;20050;-81
2021/12/15 03:38:23;;;;;;;39.42;16.17;;;;;;;;;;6308728;28;20144;-79
2021/12/15 03:41:24;;;;;;;40.25;15.75;;;;;;;;;;6302889;28;20040;-80
2021/12/15 03:44:28;;;;;;;41.72;16.08;;;;;;;;;;6285324;28;20028;-80
2021/12/15 03:47:32;;;;;;;41.63;16.45;;;;;;;;;;6301031;28;20040;-82
2021/12/15 03:50:34;;;;;;;36.40;14.98;;;;;;;;;;6295629;28;20059;-81
2021/12/15 03:53:36;;;;;;;36.97;15.23;;;;;;;;;;6287372;28;20052;-79
2021/12/15 03:56:42;;;;;;;33.55;14.95;;;;;;;;;;6286571;28;20036;-82
2021/12/15 03:59:45;;;;;;;40.45;16.00;;;;;;;;;;6302029;28;20040;-81
2021/12/15 04:02:47;;;;;;;38.92;14.10;;;;;;;;;;6302009;28;20041;-81
2021/12/15 04:05:50;;;;;;;32.38;13.13;;;;;;;;;;6297067;28;20044;-82
2021/12/15 04:08:53;;;;;;;34.85;14.15;;;;;;;;;;6307384;28;20040;-82
2021/12/15 04:11:55;;;;;;;;;;;;;;;;;;6278677;28;20056;-81
2021/12/15 04:15:18;;;;;;;35.03;13.52;;;;;;;;;;6308200;28;20464;-81
2021/12/15 04:18:18;;;;;;;31.05;13.05;;;;;;;;;;6321497;28;20064;-82
2021/12/15 04:21:20;;;;;;;35.85;13.60;;;;;;;;;;6319253;28;20055;-82
2021/12/15 04:24:24;;;;;;;32.78;12.88;;;;;;;;;;6300317;28;20122;-80
2021/12/15 04:27:26;;;;;;;36.60;13.90;;;;;;;;;;6300842;28;20048;-82
2021/12/15 04:30:34;;;;;;;35.28;13.90;;;;;;;;;;6282428;28;20131;-81
2021/12/15 04:33:40;;;;;;;33.17;13.65;;;;;;;;;;6294216;28;20059;-81
2021/12/15 04:36:46;;;;;;;32.85;13.30;;;;;;;;;;6292626;28;20239;-82
2021/12/15 04:39:48;;;;;;;35.00;13.95;;;;;;;;;;6293795;28;20036;-84
2021/12/15 04:42:50;;;;;;;32.78;13.85;;;;;;;;;;6291891;28;20046;-82
2021/12/15 04:45:52;;;;;;;31.73;12.45;;;;;;;;;;6304663;28;20443;-87
2021/12/15 04:48:54;;;;;;;34.65;13.70;;;;;;;;;;6276183;28;20040;-81
2021/12/15 04:51:56;;;;;;;34.65;13.27;;;;;;;;;;6271390;28;20047;-83
2021/12/15 04:55:00;;;;;;;34.37;12.50;;;;;;;;;;6299584;28;20098;-81
2021/12/15 04:58:05;;;;;;;33.33;13.55;;;;;;;;;;6313151;28;20064;-80
2021/12/15 05:01:09;;;;;;;36.33;13.43;;;;;;;;;;6304729;28;20117;-81
2021/12/15 05:04:12;;;;;;;36.35;14.05;;;;;;;;;;6297583;28;20045;-83
2021/12/15 05:07:15;;;;;;;38.85;14.98;;;;;;;;;;6306298;28;20538;-83
2021/12/15 05:10:19;;;;;;;37.40;14.77;;;;;;;;;;6318778;28;20502;-83
2021/12/15 05:13:21;;;;;;;32.90;15.15;;;;;;;;;;6316800;28;20127;-82
2021/12/15 05:16:23;;;;;;;33.53;16.13;;;;;;;;;;6304573;28;20066;-81
2021/12/15 05:19:26;;;;;;;34.97;15.00;;;;;;;;;;6319619;28;20040;-83
2021/12/15 05:22:29;;;;;;;29.38;14.27;;;;;;;;;;6317286;28;20109;-82
2021/12/15 05:25:31;;;;;;;28.20;12.95;;;;;;;;;;6283269;28;20123;-83
2021/12/15 05:28:33;;;;;;;35.67;15.15;;;;;;;;;;6318599;28;20404;-82
2021/12/15 05:31:34;;;;;;;40.50;16.52;;;;;;;;;;6283921;28;20507;-84
2021/12/15 05:34:40;;;;;;;41.75;15.95;;;;;;;;;;6276254;28;20417;-83
2021/12/15 05:37:43;;;;;;;48.90;19.83;;;;;;;;;;6276812;28;20047;-84
2021/12/15 05:40:45;;;;;;;40.58;16.98;;;;;;;;;;6299660;28;20519;-83
2021/12/15 05:43:46;;;;;;;53.47;20.75;;;;;;;;;;6296435;28;20044;-81
2021/12/15 05:46:48;;;;;;;48.63;21.20;;;;;;;;;;6301448;28;20049;-82
2021/12/15 05:49:50;;;;;;;51.28;21.00;;;;;;;;;;6276259;28;20048;-82
2021/12/15 05:52:52;;;;;;;51.40;21.13;;;;;;;;;;6282633;28;20059;-84
2021/12/15 05:55:54;;;;;;;42.78;18.52;;;;;;;;;;6319478;28;20773;-81
2021/12/15 05:58:55;;;;;;;49.70;20.20;;;;;;;;;;6293046;28;20058;-80
2021/12/15 06:01:57;;;;;;;41.83;18.13;;;;;;;;;;6292286;28;20130;-79
2021/12/15 06:04:59;;;;;;;39.67;18.08;;;;;;;;;;6293469;28;20536;-81
2021/12/15 06:08:01;;;;;;;35.47;14.80;;;;;;;;;;6295954;28;20394;-80
2021/12/15 06:11:03;;;;;;;34.15;14.40;;;;;;;;;;6316123;28;20059;-80
2021/12/15 06:14:05;;;;;;;42.50;17.85;;;;;;;;;;6294628;28;20164;-78
2021/12/15 06:17:09;;;;;;;37.58;14.10;;;;;;;;;;6291355;28;20048;-80
2021/12/15 06:20:11;;;;;;;33.55;14.30;;;;;;;;;;6298454;28;20123;-80
2021/12/15 06:23:18;;;;;;;35.28;14.77;;;;;;;;;;6297878;28;20082;-83
2021/12/15 06:26:20;;;;;;;42.20;17.73;;;;;;;;;;6316210;28;20046;-81
2021/12/15 06:29:21;;;;;;;59.28;21.77;;;;;;;;;;6315954;28;20044;-79
2021/12/15 06:32:23;;;;;;;54.88;21.67;;;;;;;;;;6308375;28;20032;-80
2021/12/15 06:35:25;;;;;;;49.35;18.92;;;;;;;;;;6316927;28;20090;-81
2021/12/15 06:38:31;;;;;;;40.55;16.02;;;;;;;;;;6282054;28;20042;-81
2021/12/15 06:41:33;;;;;;;41.58;17.15;;;;;;;;;;6289963;28;20435;-82
2021/12/15 06:44:35;;;;;;;45.78;17.55;;;;;;;;;;6302614;28;20047;-81
2021/12/15 07:01:01;;;;;;;48.70;18.05;;;;;;;;;;6291669;28;20044;-81
2021/12/15 07:04:03;;;;;;;42.85;17.88;;;;;;;;;;6290355;28;20056;-82
2021/12/15 07:07:05;;;;;;;44.70;17.67;;;;;;;;;;6292022;28;20048;-81
2021/12/15 07:10:09;;;;;;;47.90;19.13;;;;;;;;;;6311528;28;20133;-82
2021/12/15 07:13:11;;;;;;;41.65;16.55;;;;;;;;;;6313093;28;20043;-83
2021/12/15 07:16:13;;;;;;;54.87;19.87;;;;;;;;;;6279398;28;20106;-85
2021/12/15 07:20:02;;;;;;;57.22;21.63;;;;;;;;;;6288523;28;20086;-82
2021/12/15 07:22:43;;;;;;;52.00;20.10;;;;;;;;;;6304384;28;20050;-81
2021/12/15 07:25:48;;;;;;;42.92;17.67;;;;;;;;;;6278314;28;20417;-80
2021/12/15 07:28:49;;;;;;;45.60;17.45;;;;;;;;;;6280551;28;20048;-81
2021/12/15 07:31:52;;;;;;;37.95;15.25;;;;;;;;;;6310033;28;20043;-80
2021/12/15 07:34:53;;;;;;;39.53;16.48;;;;;;;;;;6322059;28;20040;-80
2021/12/15 07:37:55;;;;;;;41.05;20.40;;;;;;;;;;6312754;28;20047;-80
2021/12/15 07:40:57;;;;;;;44.63;17.52;;;;;;;;;;6281834;28;20099;-80
2021/12/15 07:44:00;;;;;;;46.58;19.02;;;;;;;;;;6302696;28;20048;-77
2021/12/15 07:47:20;;;;;;;42.90;17.55;;;;;;;;;;6316755;28;20059;-79
2021/12/15 07:50:23;;;;;;;43.35;20.50;;;;;;;;;;6293912;28;20051;-78
2021/12/15 07:53:25;;;;;;;38.15;14.98;;;;;;;;;;6301381;28;20036;-79
2021/12/15 07:56:27;;;;;;;40.50;16.90;;;;;;;;;;6318418;28;20710;-79
2021/12/15 07:59:29;;;;;;;40.78;16.02;;;;;;;;;;6308701;28;20040;-79
2021/12/15 08:02:31;;;;;;;43.42;15.23;;;;;;;;;;6320855;28;20047;-79
2021/12/15 08:05:34;;;;;;;39.10;15.40;;;;;;;;;;6319937;28;20059;-80
2021/12/15 08:08:36;;;;;;;37.35;14.55;;;;;;;;;;6301279;28;20519;-80
2021/12/15 08:11:38;;;;;;;42.65;14.60;;;;;;;;;;6313796;28;20042;-78
2021/12/15 08:14:39;;;;;;;41.25;14.20;;;;;;;;;;6322614;28;20044;-79
2021/12/15 08:17:42;;;;;;;36.08;13.70;;;;;;;;;;6307753;28;20111;-80
2021/12/15 08:20:44;;;;;;;35.97;13.73;;;;;;;;;;6327567;28;20082;-81
2021/12/15 08:23:45;;;;;;;32.45;12.80;;;;;;;;;;6298011;28;20127;-80
2021/12/15 08:26:48;;;;;;;31.33;13.45;;;;;;;;;;6303326;28;20048;-81
2021/12/15 08:29:49;;;;;;;36.55;12.85;;;;;;;;;;6306006;28;20060;-81
2021/12/15 08:32:54;;;;;;;38.25;14.23;;;;;;;;;;6305200;28;20039;-81
2021/12/15 08:35:59;;;;;;;37.25;17.85;;;;;;;;;;6296719;28;20045;-81
2021/12/15 08:39:02;;;;;;;39.80;16.73;;;;;;;;;;6295515;28;20118;-80
2021/12/15 08:42:04;;;;;;;35.58;15.88;;;;;;;;;;6319668;28;20040;-80
2021/12/15 08:45:07;;;;;;;37.25;14.25;;;;;;;;;;6291853;28;20060;-80
2021/12/15 08:48:09;;;;;;;41.27;16.53;;;;;;;;;;6296351;28;20044;-80
2021/12/15 08:51:13;;;;;;;45.03;22.23;;;;;;;;;;6292976;28;20039;-80
2021/12/15 08:54:17;;;;;;;30.60;12.57;;;;;;;;;;6301033;28;20047;-81
2021/12/15 08:57:19;;;;;;;33.17;14.40;;;;;;;;;;6317412;28;20428;-80
2021/12/15 09:00:25;;;;;;;34.08;14.25;;;;;;;;;;6316842;28;20040;-80
2021/12/15 09:03:28;;;;;;;43.88;16.98;;;;;;;;;;6317479;28;20109;-79
2021/12/15 09:06:31;;;;;;;33.10;17.13;;;;;;;;;;6282906;28;20417;-79
2021/12/15 09:09:33;;;;;;;34.10;14.38;;;;;;;;;;6297292;28;20055;-79
2021/12/15 09:12:36;;;;;;;27.10;11.05;;;;;;;;;;6298751;28;20047;-79
2021/12/15 09:15:39;;;;;;;36.88;15.05;;;;;;;;;;6280870;28;20409;-78
2021/12/15 09:18:42;;;;;;;;;;;;;;;;;;6316237;28;20040;-80
2021/12/15 09:21:44;;;;;;;29.45;12.23;;;;;;;;;;6316323;28;20022;-79
2021/12/15 09:24:46;;;;;;;26.90;11.48;;;;;;;;;;6313854;28;20044;-80
2021/12/15 09:27:48;;;;;;;33.95;15.05;;;;;;;;;;6294698;28;20040;-80
2021/12/15 09:30:50;;;;;;;26.48;12.77;;;;;;;;;;6309587;28;20037;-79
2021/12/15 09:33:54;;;;;;;27.70;11.40;;;;;;;;;;6287087;28;20033;-80
2021/12/15 09:36:57;;;;;;;32.00;12.60;;;;;;;;;;6289764;28;20041;-79
2021/12/15 09:39:59;;;;;;;28.75;12.60;;;;;;;;;;6303727;28;20127;-79
2021/12/15 09:43:03;;;;;;;26.83;11.52;;;;;;;;;;6314708;28;20050;-81
2021/12/15 09:46:25;;;;;;;23.52;11.95;;;;;;;;;;6297003;28;20066;-79
2021/12/15 10:02:57;;;;;;;24.10;12.13;;;;;;;;;;6303089;28;20044;-80
2021/12/15 10:19:05;;;;;;;19.70;9.88;;;;;;;;;;6306453;28;20044;-79
2021/12/15 10:22:13;;;;;;;23.10;11.73;;;;;;;;;;6293124;28;20083;-79
2021/12/15 10:25:17;;;;;;;16.98;8.55;;;;;;;;;;6300618;28;20127;-79
2021/12/15 10:28:21;;;;;;;19.58;8.30;;;;;;;;;;6293361;28;20404;-79
2021/12/15 10:31:27;;;;;;;17.15;8.88;;;;;;;;;;6313582;28;20036;-79
2021/12/15 10:34:30;;;;;;;17.60;8.05;;;;;;;;;;6315337;28;20131;-80
2021/12/15 10:37:38;;;;;;;21.23;9.00;;;;;;;;;;6313652;28;20048;-80
2021/12/15 10:40:44;;;;;;;18.60;7.97;;;;;;;;;;6282196;28;20048;-79
2021/12/15 10:44:06;;;;;;;17.08;7.80;;;;;;;;;;6305399;28;20048;-79
2021/12/15 10:47:08;;;;;;;16.45;7.75;;;;;;;;;;6287030;28;20052;-79
2021/12/15 10:50:18;;;;;;;14.65;6.82;;;;;;;;;;6308700;28;20100;-81
2021/12/15 10:53:32;;;;;;;21.70;12.43;;;;;;;;;;6309811;28;20382;-79
2021/12/15 10:56:38;;;;;;;14.48;7.63;;;;;;;;;;6304521;28;20136;-79
2021/12/15 10:59:53;;;;;;;8.98;3.97;;;;;;;;;;6304260;28;20047;-77
2021/12/15 11:03:16;;;;;;;14.25;5.82;;;;;;;;;;6288223;28;20036;-77
2021/12/15 11:06:23;;;;;;;13.48;6.82;;;;;;;;;;6307753;28;20511;-80
2021/12/15 11:09:25;;;;;;;8.48;4.32;;;;;;;;;;6315116;28;20182;-79
2021/12/15 11:12:40;;;;;;;8.20;3.75;;;;;;;;;;6314973;28;20700;-78
2021/12/15 11:15:50;;;;;;;10.10;4.82;;;;;;;;;;6288142;28;20050;-77
2021/12/15 11:18:52;;;;;;;7.07;4.00;;;;;;;;;;6300750;28;20408;-78
2021/12/15 11:21:54;;;;;;;8.48;4.13;;;;;;;;;;6289745;28;20074;-78
2021/12/15 11:24:56;;;;;;;6.00;3.60;;;;;;;;;;6295959;28;20048;-77
2021/12/15 11:28:07;;;;;;;6.18;3.00;;;;;;;;;;6290002;28;20060;-78
2021/12/15 11:31:11;;;;;;;9.45;3.42;;;;;;;;;;6314161;28;20046;-78
2021/12/15 11:34:13;;;;;;;9.43;5.13;;;;;;;;;;6297214;28;20156;-78
2021/12/15 11:37:35;;;;;;;10.98;4.75;;;;;;;;;;6272946;28;20045;-78
2021/12/15 11:40:44;;;;;;;6.88;4.18;;;;;;;;;;6288574;28;20134;-78
2021/12/15 11:43:52;;;;;;;8.80;5.15;;;;;;;;;;6314808;28;20036;-79
2021/12/15 11:47:05;;;;;;;8.15;4.40;;;;;;;;;;6298669;28;20040;-79
2021/12/15 11:50:11;;;;;;;11.80;5.55;;;;;;;;;;6315881;28;20119;-79
2021/12/15 11:53:40;;;;;;;75.25;27.35;;;;;;;;;;6314401;28;20047;-81
2021/12/15 11:56:46;;;;;;;15.00;7.95;;;;;;;;;;6286281;28;20048;-81
2021/12/15 11:59:54;;;;;;;12.35;6.30;;;;;;;;;;6308244;28;20078;-78
2021/12/15 12:02:58;;;;;;;17.48;10.07;;;;;;;;;;6311493;28;20042;-78
2021/12/15 12:06:01;;;;;;;15.32;9.07;;;;;;;;;;6305321;28;20044;-80
2021/12/15 12:09:03;;;;;;;13.82;8.43;;;;;;;;;;6294289;28;20127;-78
2021/12/15 12:12:05;;;;;;;12.70;7.07;;;;;;;;;;6281751;28;20051;-78
2021/12/15 12:15:13;;;;;;;7.32;3.70;;;;;;;;;;6281461;28;20046;-77
2021/12/15 12:18:24;;;;;;;8.85;4.38;;;;;;;;;;6313926;28;20035;-78
2021/12/15 12:21:25;;;;;;;11.18;5.93;;;;;;;;;;6296917;28;20046;-78
2021/12/15 12:24:33;;;;;;;7.93;3.72;;;;;;;;;;6299397;28;20050;-78
2021/12/15 12:27:36;;;;;;;9.93;5.35;;;;;;;;;;6292117;28;20106;-79
2021/12/15 12:30:42;;;;;;;7.50;4.55;;;;;;;;;;6293662;28;20718;-79
2021/12/15 12:33:44;;;;;;;7.65;4.88;;;;;;;;;;6299552;28;20047;-79
2021/12/15 12:36:45;;;;;;;10.90;6.30;;;;;;;;;;6316575;28;20047;-79
2021/12/15 12:39:53;;;;;;;8.32;4.32;;;;;;;;;;6286614;28;20041;-79
2021/12/15 12:42:55;;;;;;;6.93;4.22;;;;;;;;;;6295100;28;20044;-79
2021/12/15 12:46:27;;;;;;;8.75;5.75;;;;;;;;;;6291235;28;20450;-79
2021/12/15 12:59:48;;;;;;;7.53;4.28;;;;;;;;;;6274718;28;20048;-79
2021/12/15 13:03:01;;;;;;;6.88;3.55;;;;;;;;;;6281544;28;20048;-78
2021/12/15 13:06:18;;;;;;;7.75;4.57;;;;;;;;;;6290182;28;20492;-78
2021/12/15 13:09:25;;;;;;;8.85;4.57;;;;;;;;;;6287405;28;20135;-78
2021/12/15 13:12:27;;;;;;;8.48;4.45;;;;;;;;;;6294407;28;20046;-79
2021/12/15 13:15:34;;;;;;;7.18;3.95;;;;;;;;;;6289828;28;20563;-78
2021/12/15 13:19:12;;;;;;;6.18;3.88;;;;;;;;;;6291497;28;20190;-78
2021/12/15 13:22:31;;;;;;;6.30;3.60;;;;;;;;;;6278041;28;20078;-79
2021/12/15 13:29:23;;;;;;;8.10;4.53;;;;;;;;;;6311022;28;20040;-79
2021/12/15 13:32:29;;;;;;;11.27;5.30;;;;;;;;;;6275368;28;20720;-79
2021/12/15 13:35:53;;;;;;;7.47;4.45;;;;;;;;;;6292399;28;20072;-79
2021/12/15 13:39:02;;;;;;;5.25;3.53;;;;;;;;;;6311733;28;20052;-78
2021/12/15 13:42:11;;;;;;;6.93;3.10;;;;;;;;;;6317576;28;20765;-79
2021/12/15 13:45:27;;;;;;;6.20;2.97;;;;;;;;;;6272599;28;20036;-78
2021/12/15 13:48:55;;;;;;;3.65;2.67;;;;;;;;;;6275127;28;20052;-79
2021/12/15 13:52:02;;;;;;;5.13;3.47;;;;;;;;;;6274082;28;20052;-78
2021/12/15 13:55:16;;;;;;;4.03;2.65;;;;;;;;;;6312762;28;20074;-79
2021/12/15 13:58:21;;;;;;;5.70;3.13;;;;;;;;;;6316685;28;20419;-80
2021/12/15 14:01:22;;;;;;;3.97;2.80;;;;;;;;;;6278243;28;20122;-79
2021/12/15 14:05:00;;;;;;;4.03;2.50;;;;;;;;;;6314249;28;20040;-78
2021/12/15 14:08:07;;;;;;;4.10;2.20;;;;;;;;;;6221906;28;20130;-79
2021/12/15 14:11:24;;;;;;;3.50;2.28;;;;;;;;;;6313143;28;20097;-79
2021/12/15 14:14:26;;;;;;;3.85;2.53;;;;;;;;;;6315523;28;20571;-80
2021/12/15 14:17:28;;;;;;;4.50;2.25;;;;;;;;;;6297817;28;20040;-79
2021/12/15 14:20:32;;;;;;;6.18;3.00;;;;;;;;;;6311161;28;20044;-79
2021/12/15 14:23:41;;;;;;;3.72;2.50;;;;;;;;;;6297847;28;20072;-79
2021/12/15 14:27:02;;;;;;;3.47;2.53;;;;;;;;;;6262247;28;20451;-78
2021/12/15 14:30:09;;;;;;;3.72;2.53;;;;;;;;;;6307914;28;20123;-79
2021/12/15 14:33:24;;;;;;;3.00;2.10;;;;;;;;;;6293993;28;20044;-80
2021/12/15 14:36:31;;;;;;;3.85;2.22;;;;;;;;;;6291459;28;20124;-80
2021/12/15 14:39:40;;;;;;;5.13;2.55;;;;;;;;;;6306344;28;20413;-79
2021/12/15 14:42:42;;;;;;;4.47;2.60;;;;;;;;;;6310063;28;20043;-79
2021/12/15 14:45:45;;;;;;;3.45;2.17;;;;;;;;;;6294419;28;20040;-79
2021/12/15 14:48:59;;;;;;;6.22;2.58;;;;;;;;;;6317211;28;20047;-78
2021/12/15 14:52:03;;;;;;;;;;;;;;;;;;6313526;28;20036;-79
2021/12/15 14:55:09;;;;;;;3.75;2.50;;;;;;;;;;6294287;28;20086;-78
2021/12/15 14:58:20;;;;;;;3.95;2.85;;;;;;;;;;6291419;28;20131;-78
2021/12/15 15:01:22;;;;;;;13.40;8.15;;;;;;;;;;6260614;28;20155;-80
2021/12/15 15:04:26;;;;;;;5.93;3.60;;;;;;;;;;6275301;28;20044;-80
2021/12/15 15:07:32;;;;;;;5.57;3.08;;;;;;;;;;6277008;28;20117;-79
2021/12/15 15:10:38;;;;;;;5.32;2.95;;;;;;;;;;6272326;28;20060;-80
2021/12/15 15:13:50;;;;;;;3.70;2.53;;;;;;;;;;6293775;28;20099;-80
2021/12/15 15:16:52;;;;;;;7.10;4.38;;;;;;;;;;6281138;28;20036;-79
2021/12/15 15:19:59;;;;;;;14.77;8.35;;;;;;;;;;6257792;28;20070;-80
2021/12/15 15:23:05;;;;;;;18.50;7.97;;;;;;;;;;6296225;28;20050;-80
2021/12/15 15:26:10;;;;;;;20.05;9.48;;;;;;;;;;6274926;28;20040;-80
2021/12/15 15:29:11;;;;;;;4.70;3.97;;;;;;;;;;6299533;28;20117;-79
2021/12/15 15:32:26;;;;;;;5.72;3.72;;;;;;;;;;6297490;28;20040;-80
2021/12/15 15:35:32;;;;;;;4.10;2.85;;;;;;;;;;6293600;28;20040;-79
2021/12/15 15:38:45;;;;;;;4.47;2.90;;;;;;;;;;6308688;28;20101;-79
2021/12/15 15:41:48;;;;;;;4.18;2.92;;;;;;;;;;6314759;28;20040;-80
2021/12/15 15:44:50;;;;;;;7.93;4.75;;;;;;;;;;6314912;28;20036;-80
2021/12/15 15:47:52;;;;;;;7.72;3.60;;;;;;;;;;6295370;28;20041;-80
2021/12/15 15:51:17;;;;;;;39.05;15.05;;;;;;;;;;6314792;28;20705;-80
2021/12/15 15:54:25;;;;;;;38.42;15.55;;;;;;;;;;6297306;28;20511;-79
2021/12/15 15:57:29;;;;;;;40.20;17.35;;;;;;;;;;6304597;28;20055;-80
2021/12/15 16:00:35;;;;;;;15.10;9.25;;;;;;;;;;6288069;28;20089;-80
2021/12/15 16:03:37;;;;;;;44.58;20.50;;;;;;;;;;6302802;28;20044;-79
2021/12/15 16:06:39;;;;;;;38.53;19.65;;;;;;;;;;6303455;28;20040;-79
2021/12/15 16:09:42;;;;;;;63.80;25.92;;;;;;;;;;6284160;28;20075;-80
2021/12/15 16:12:45;;;;;;;53.33;25.10;;;;;;;;;;6295524;28;20041;-80
2021/12/15 16:15:55;;;;;;;30.73;15.38;;;;;;;;;;6305552;28;20119;-80
2021/12/15 16:19:04;;;;;;;41.72;17.23;;;;;;;;;;6303636;28;20036;-80
2021/12/15 16:25:38;;;;;;;12.82;7.43;;;;;;;;;;6313576;28;20131;-80
2021/12/15 16:28:43;;;;;;;11.20;5.88;;;;;;;;;;6288159;28;20044;-79
2021/12/15 16:31:52;;;;;;;8.23;4.55;;;;;;;;;;6287887;28;20036;-79
2021/12/15 16:34:54;;;;;;;6.40;4.57;;;;;;;;;;6322206;28;20127;-79
2021/12/15 16:38:14;;;;;;;8.57;6.28;;;;;;;;;;6297499;28;20078;-78
2021/12/15 16:41:34;;;;;;;8.63;5.95;;;;;;;;;;6312518;28;20136;-78
2021/12/15 16:44:44;;;;;;;9.82;5.90;;;;;;;;;;6294284;28;20054;-79
2021/12/15 16:47:46;;;;;;;9.35;6.18;;;;;;;;;;6309799;28;20042;-79
2021/12/15 16:50:59;;;;;;;9.15;5.53;;;;;;;;;;6305654;28;20060;-77
2021/12/15 16:54:08;;;;;;;9.18;6.00;;;;;;;;;;6304373;28;20508;-77
2021/12/15 16:57:15;;;;;;;9.70;6.50;;;;;;;;;;6303200;28;20051;-78
2021/12/15 17:00:22;;;;;;;10.02;5.35;;;;;;;;;;6280707;28;20055;-78
2021/12/15 17:03:30;;;;;;;9.23;5.55;;;;;;;;;;6284499;28;20040;-78
2021/12/15 17:06:32;;;;;;;7.57;4.90;;;;;;;;;;6288026;28;20109;-78
2021/12/15 17:09:39;;;;;;;15.88;8.10;;;;;;;;;;6288206;28;20053;-78
2021/12/15 17:12:46;;;;;;;13.70;7.47;;;;;;;;;;6283202;28;20455;-78
2021/12/15 17:15:56;;;;;;;14.88;9.38;;;;;;;;;;6293563;28;20056;-77
2021/12/15 17:18:58;;;;;;;10.30;5.57;;;;;;;;;;6292433;28;20044;-78
2021/12/15 17:22:13;;;;;;;11.68;5.57;;;;;;;;;;6268095;28;20082;-78
2021/12/15 17:25:19;;;;;;;9.55;5.30;;;;;;;;;;6280475;28;20055;-78
2021/12/15 17:28:27;;;;;;;15.30;6.13;;;;;;;;;;6306908;28;20424;-77
2021/12/15 17:31:32;;;;;;;13.23;7.70;;;;;;;;;;6291849;28;20054;-78
2021/12/15 17:34:37;;;;;;;14.63;9.82;;;;;;;;;;6309141;28;20052;-78
2021/12/15 17:37:39;;;;;;;17.17;9.80;;;;;;;;;;6294251;28;20126;-78
2021/12/15 17:40:41;;;;;;;16.25;9.02;;;;;;;;;;6275597;28;20047;-78
2021/12/15 17:43:44;;;;;;;16.52;10.02;;;;;;;;;;6290764;28;20037;-78
2021/12/15 17:47:04;;;;;;;18.13;11.82;;;;;;;;;;6292909;28;20174;-79
2021/12/15 17:50:20;;;;;;;24.02;14.77;;;;;;;;;;6306206;28;20044;-78
2021/12/15 17:53:21;;;;;;;21.35;13.55;;;;;;;;;;6304504;28;20046;-78
2021/12/15 17:56:23;;;;;;;25.92;15.20;;;;;;;;;;6288264;28;20490;-79
2021/12/15 17:59:25;;;;;;;30.50;17.35;;;;;;;;;;6299436;28;20138;-78
2021/12/15 18:02:32;;;;;;;20.35;12.70;;;;;;;;;;6294574;28;20064;-78
2021/12/15 18:05:34;;;;;;;24.77;14.65;;;;;;;;;;6295225;28;20037;-78
2021/12/15 18:08:36;;;;;;;25.70;14.57;;;;;;;;;;6297511;28;20055;-79
2021/12/15 18:11:39;;;;;;;28.42;16.25;;;;;;;;;;6294027;28;20047;-78
2021/12/15 18:14:41;;;;;;;31.50;16.75;;;;;;;;;;6298386;28;20044;-77
2021/12/15 18:17:43;;;;;;;24.27;14.75;;;;;;;;;;6297562;28;20040;-78
2021/12/15 18:20:45;;;;;;;21.38;12.95;;;;;;;;;;6301791;28;20401;-79
2021/12/15 18:23:50;;;;;;;23.95;14.30;;;;;;;;;;6300316;28;20045;-78
2021/12/15 18:26:55;;;;;;;23.40;14.30;;;;;;;;;;6309777;28;20040;-78
2021/12/15 18:29:58;;;;;;;24.10;15.68;;;;;;;;;;6298417;28;20170;-77
2021/12/15 18:33:01;;;;;;;20.83;14.53;;;;;;;;;;6306141;28;20037;-78
2021/12/15 18:36:06;;;;;;;16.77;11.80;;;;;;;;;;6297094;28;20037;-77
2021/12/15 18:39:12;;;;;;;17.02;11.20;;;;;;;;;;6291419;28;20048;-80
2021/12/15 18:42:20;;;;;;;21.45;12.38;;;;;;;;;;6289822;28;20043;-78
2021/12/15 18:45:23;;;;;;;18.55;11.75;;;;;;;;;;6302015;28;20051;-77
2021/12/15 18:48:27;;;;;;;17.08;11.38;;;;;;;;;;6306333;28;20404;-78
2021/12/15 18:51:29;;;;;;;19.20;11.80;;;;;;;;;;6298968;28;20127;-78
2021/12/15 18:54:34;;;;;;;18.87;10.60;;;;;;;;;;6312343;28;20052;-79
2021/12/15 18:57:36;;;;;;;15.20;10.07;;;;;;;;;;6290857;28;20040;-78
2021/12/15 19:00:42;;;;;;;17.08;10.98;;;;;;;;;;6273662;28;20049;-79
2021/12/15 19:03:49;;;;;;;16.67;10.45;;;;;;;;;;6289868;28;20051;-78
2021/12/15 19:06:51;;;;;;;19.48;11.15;;;;;;;;;;6274761;28;20040;-78
2021/12/15 19:09:53;;;;;;;17.63;10.90;;;;;;;;;;6274284;28;20046;-79
2021/12/15 19:12:59;;;;;;;16.67;10.32;;;;;;;;;;6306077;28;20126;-77
2021/12/15 19:16:03;;;;;;;15.93;9.80;;;;;;;;;;6278122;28;20037;-78
2021/12/15 19:19:11;;;;;;;16.40;9.85;;;;;;;;;;6284614;28;20062;-78
2021/12/15 19:22:16;;;;;;;19.35;11.65;;;;;;;;;;6306369;28;20150;-79
2021/12/15 19:25:22;;;;;;;17.42;10.93;;;;;;;;;;6286110;28;20050;-80
2021/12/15 19:28:24;;;;;;;18.13;11.88;;;;;;;;;;6286912;28;20052;-78
2021/12/15 19:31:29;;;;;;;22.17;13.95;;;;;;;;;;6311651;28;20040;-80
2021/12/15 19:34:31;;;;;;;27.10;15.43;;;;;;;;;;6315394;28;20047;-79
2021/12/15 19:37:33;;;;;;;32.33;16.00;;;;;;;;;;6315120;28;20153;-79
2021/12/15 19:40:36;;;;;;;22.90;12.45;;;;;;;;;;6284342;28;20048;-79